Time;durP1;ratioP1;P1;durP2;ratioP2;P2;SDS_P1;SDS_P2;PMS_P1;PMS_P2;Temp;Humidity;BMP_temperature;BMP_pressure;BME280_temperature;BME280_humidity;BME280_pressure;Samples;Min_cycle;Max_cycle;Signal;HPM_P1;HPM_P2
2022/10/10 00:02:11;;;;;;;6.57;6.07;;;;;;;;;;5019219;28;20471;-59
2022/10/10 00:04:37;;;;;;;7.05;6.55;;;;;;;;;;5014094;28;20306;-59
2022/10/10 00:07:03;;;;;;;7.05;6.55;;;;;;;;;;5017481;28;20315;-59
2022/10/10 00:09:28;;;;;;;5.95;5.55;;;;;;;;;;5018296;28;20467;-59
2022/10/10 00:11:54;;;;;;;6.28;5.85;;;;;;;;;;5016154;28;20430;-60
2022/10/10 00:14:19;;;;;;;6.60;6.10;;;;;;;;;;5018945;28;20369;-60
2022/10/10 00:16:44;;;;;;;6.28;5.78;;;;;;;;;;5018971;28;20037;-59
2022/10/10 00:19:10;;;;;;;6.75;6.25;;;;;;;;;;5018731;28;20030;-59
2022/10/10 00:21:35;;;;;;;7.20;6.65;;;;;;;;;;5018387;28;20108;-59
2022/10/10 00:24:00;;;;;;;6.90;6.40;;;;;;;;;;5017628;28;20359;-59
2022/10/10 00:26:26;;;;;;;7.80;7.20;;;;;;;;;;5013109;28;20048;-59
2022/10/10 00:28:51;;;;;;;6.63;6.05;;;;;;;;;;5021127;28;20038;-60
2022/10/10 00:31:17;;;;;;;7.32;6.72;;;;;;;;;;5017167;28;20532;-60
2022/10/10 00:33:43;;;;;;;7.03;6.53;;;;;;;;;;5020946;28;20033;-60
2022/10/10 00:36:08;;;;;;;9.02;6.25;;;;;;;;;;5016284;28;20091;-60
2022/10/10 00:38:34;;;;;;;6.20;5.80;;;;;;;;;;5017347;28;20030;-60
2022/10/10 00:41:00;;;;;;;6.40;5.90;;;;;;;;;;5015268;28;20068;-60
2022/10/10 00:43:26;;;;;;;7.15;6.65;;;;;;;;;;5015686;28;20302;-60
2022/10/10 00:45:52;;;;;;;6.93;6.43;;;;;;;;;;5014115;28;20025;-60
2022/10/10 00:48:24;;;;;;;7.53;6.95;;;;;;;;;;5018778;28;20018;-60
2022/10/10 00:50:55;;;;;;;6.60;6.10;;;;;;;;;;5047862;28;20427;-60
2022/10/10 00:53:24;;;;;;;7.03;6.50;;;;;;;;;;5016081;28;20030;-62
2022/10/10 00:55:52;;;;;;;6.72;6.22;;;;;;;;;;5014603;28;20040;-64
2022/10/10 00:58:18;;;;;;;7.55;6.95;;;;;;;;;;5014885;28;20033;-64
2022/10/10 01:00:44;;;;;;;6.28;5.88;;;;;;;;;;5014559;28;20033;-64
2022/10/10 01:03:09;;;;;;;7.75;6.95;;;;;;;;;;5016096;28;20029;-64
2022/10/10 01:05:35;;;;;;;6.20;5.80;;;;;;;;;;5017337;28;20036;-64
2022/10/10 01:08:02;;;;;;;6.82;6.32;;;;;;;;;;5015269;28;20022;-64
2022/10/10 01:10:28;;;;;;;6.70;6.10;;;;;;;;;;5016361;28;20038;-65
2022/10/10 01:13:08;;;;;;;7.05;6.47;;;;;;;;;;5016335;28;20399;-65
2022/10/10 01:16:14;;;;;;;6.60;6.10;;;;;;;;;;5018129;28;20041;-65
2022/10/10 01:18:52;;;;;;;6.50;6.00;;;;;;;;;;5009939;28;20037;-64
2022/10/10 01:21:27;;;;;;;6.88;6.38;;;;;;;;;;5014662;28;20061;-65
2022/10/10 01:23:59;;;;;;;6.15;5.75;;;;;;;;;;5014455;28;20503;-65
2022/10/10 01:26:46;;;;;;;6.63;6.13;;;;;;;;;;5016625;28;20038;-66
2022/10/10 01:29:51;;;;;;;6.50;6.03;;;;;;;;;;5014141;28;20036;-65
2022/10/10 01:32:50;;;;;;;6.93;6.43;;;;;;;;;;5016838;28;20376;-65
2022/10/10 01:35:24;;;;;;;7.05;6.55;;;;;;;;;;5017543;28;20141;-64
2022/10/10 01:38:00;;;;;;;7.03;6.53;;;;;;;;;;5017816;28;20056;-65
2022/10/10 01:40:32;;;;;;;6.85;6.35;;;;;;;;;;5014505;28;20136;-66
2022/10/10 01:43:02;;;;;;;6.55;6.05;;;;;;;;;;5018853;28;20290;-64
2022/10/10 01:45:30;;;;;;;7.15;6.57;;;;;;;;;;5014589;28;20040;-65
2022/10/10 01:47:57;;;;;;;6.70;6.20;;;;;;;;;;5014303;28;20172;-64
2022/10/10 01:50:25;;;;;;;6.82;6.32;;;;;;;;;;5014403;28;20507;-65
2022/10/10 01:53:05;;;;;;;7.30;6.80;;;;;;;;;;5014493;28;20046;-65
2022/10/10 01:55:52;;;;;;;6.90;6.40;;;;;;;;;;5016526;28;20036;-65
2022/10/10 01:58:53;;;;;;;7.60;7.10;;;;;;;;;;5016894;28;20072;-65
2022/10/10 02:01:40;;;;;;;7.80;7.25;;;;;;;;;;5014351;28;20132;-65
2022/10/10 02:04:15;;;;;;;8.05;7.45;;;;;;;;;;5015759;28;20034;-65
2022/10/10 02:06:48;;;;;;;6.85;6.35;;;;;;;;;;5017548;28;20083;-65
2022/10/10 02:09:20;;;;;;;7.45;6.95;;;;;;;;;;5014803;28;20033;-65
2022/10/10 02:11:47;;;;;;;6.65;6.18;;;;;;;;;;5013555;28;20056;-64
2022/10/10 02:14:23;;;;;;;7.28;6.78;;;;;;;;;;5014201;28;20112;-65
2022/10/10 02:16:53;;;;;;;6.95;6.45;;;;;;;;;;5012656;28;20045;-64
2022/10/10 02:19:21;;;;;;;6.70;6.20;;;;;;;;;;5015046;28;20035;-65
2022/10/10 02:21:48;;;;;;;9.10;7.85;;;;;;;;;;5016637;28;20486;-65
2022/10/10 02:24:15;;;;;;;7.22;6.68;;;;;;;;;;5012756;28;20037;-63
2022/10/10 02:26:45;;;;;;;6.78;6.28;;;;;;;;;;5014615;28;20034;-65
2022/10/10 02:29:18;;;;;;;7.10;6.60;;;;;;;;;;5015844;28;20038;-64
2022/10/10 02:31:53;;;;;;;6.70;6.20;;;;;;;;;;5013687;28;20092;-65
2022/10/10 02:34:33;;;;;;;7.80;7.22;;;;;;;;;;5018988;28;20040;-64
2022/10/10 02:37:06;;;;;;;7.15;6.65;;;;;;;;;;5013090;28;20033;-65
2022/10/10 02:39:38;;;;;;;6.93;6.43;;;;;;;;;;5016050;28;20044;-65
2022/10/10 02:42:05;;;;;;;7.10;6.60;;;;;;;;;;5011139;28;20471;-64
2022/10/10 02:44:32;;;;;;;7.63;7.13;;;;;;;;;;5012026;28;20112;-65
2022/10/10 02:46:57;;;;;;;7.57;7.07;;;;;;;;;;5011886;28;20076;-65
2022/10/10 02:49:27;;;;;;;7.35;6.85;;;;;;;;;;5016061;28;20126;-65
2022/10/10 02:51:52;;;;;;;8.18;7.65;;;;;;;;;;5015598;28;20249;-66
2022/10/10 02:54:18;;;;;;;8.35;7.75;;;;;;;;;;5015068;28;20087;-65
2022/10/10 02:56:43;;;;;;;8.05;7.53;;;;;;;;;;5015490;28;20061;-65
2022/10/10 02:59:09;;;;;;;7.88;7.28;;;;;;;;;;5013612;28;20562;-65
2022/10/10 03:01:34;;;;;;;7.35;6.85;;;;;;;;;;5016280;28;20486;-65
2022/10/10 03:04:00;;;;;;;7.10;6.60;;;;;;;;;;5014741;28;20077;-65
2022/10/10 03:06:25;;;;;;;7.85;7.25;;;;;;;;;;5013406;28;20033;-64
2022/10/10 03:08:51;;;;;;;7.10;6.60;;;;;;;;;;5016132;28;20069;-64
2022/10/10 03:11:16;;;;;;;6.70;6.20;;;;;;;;;;5014735;28;20199;-64
2022/10/10 03:13:41;;;;;;;6.95;6.45;;;;;;;;;;5014499;28;20029;-65
2022/10/10 03:16:07;;;;;;;7.22;6.72;;;;;;;;;;5014877;28;20360;-65
2022/10/10 03:18:32;;;;;;;6.50;6.00;;;;;;;;;;5015534;28;20063;-65
2022/10/10 03:20:58;;;;;;;7.22;6.63;;;;;;;;;;5011459;28;20262;-65
2022/10/10 03:23:24;;;;;;;6.43;5.95;;;;;;;;;;5018493;28;20110;-64
2022/10/10 03:25:50;;;;;;;6.13;5.65;;;;;;;;;;5014183;28;20179;-65
2022/10/10 03:28:15;;;;;;;6.80;6.30;;;;;;;;;;5013831;28;20519;-64
2022/10/10 03:30:41;;;;;;;6.30;5.80;;;;;;;;;;5012334;28;20029;-65
2022/10/10 03:33:07;;;;;;;6.57;6.07;;;;;;;;;;5017246;28;20034;-64
2022/10/10 03:35:33;;;;;;;6.78;6.28;;;;;;;;;;5015036;28;20426;-65
2022/10/10 03:37:58;;;;;;;6.47;6.05;;;;;;;;;;5016106;28;20466;-65
2022/10/10 03:40:25;;;;;;;6.68;6.18;;;;;;;;;;5019301;28;20029;-65
2022/10/10 03:42:50;;;;;;;6.75;6.25;;;;;;;;;;5019607;28;20057;-65
2022/10/10 03:45:16;;;;;;;6.78;6.28;;;;;;;;;;5020257;28;20115;-64
2022/10/10 03:47:41;;;;;;;6.45;5.95;;;;;;;;;;5016980;28;20415;-65
2022/10/10 03:50:07;;;;;;;6.55;6.05;;;;;;;;;;5016995;28;20128;-65
2022/10/10 03:52:32;;;;;;;6.53;6.03;;;;;;;;;;5017276;28;20038;-64
2022/10/10 03:54:58;;;;;;;6.70;6.20;;;;;;;;;;5020009;28;20038;-64
2022/10/10 03:57:23;;;;;;;6.28;5.80;;;;;;;;;;5021221;28;20025;-65
2022/10/10 03:59:48;;;;;;;6.63;6.03;;;;;;;;;;5016091;28;20033;-64
2022/10/10 04:02:14;;;;;;;6.15;5.65;;;;;;;;;;5019399;28;20183;-65
2022/10/10 04:04:39;;;;;;;7.13;6.63;;;;;;;;;;5019607;28;20080;-65
2022/10/10 04:07:04;;;;;;;7.32;6.82;;;;;;;;;;5016457;28;20124;-67
2022/10/10 04:09:30;;;;;;;7.25;6.75;;;;;;;;;;5019327;28;20068;-65
2022/10/10 04:11:55;;;;;;;7.07;6.57;;;;;;;;;;5019755;28;20068;-65
2022/10/10 04:14:21;;;;;;;6.93;6.43;;;;;;;;;;5021745;28;20140;-65
2022/10/10 04:16:46;;;;;;;7.05;6.45;;;;;;;;;;5019556;28;20039;-66
2022/10/10 04:19:11;;;;;;;6.68;6.18;;;;;;;;;;5016888;28;20037;-65
2022/10/10 04:21:37;;;;;;;6.65;6.15;;;;;;;;;;5017711;28;20538;-65
2022/10/10 04:24:03;;;;;;;7.03;6.53;;;;;;;;;;5018893;28;20113;-64
2022/10/10 04:26:28;;;;;;;7.40;6.90;;;;;;;;;;5020846;28;20144;-64
2022/10/10 04:28:53;;;;;;;6.75;6.25;;;;;;;;;;5018264;28;20041;-64
2022/10/10 04:31:19;;;;;;;7.30;6.80;;;;;;;;;;5019341;28;20318;-63
2022/10/10 04:33:44;;;;;;;6.60;6.13;;;;;;;;;;5013985;28;20116;-60
2022/10/10 04:36:10;;;;;;;7.35;6.75;;;;;;;;;;5019985;28;20045;-60
2022/10/10 04:38:35;;;;;;;6.65;6.15;;;;;;;;;;5018182;28;20363;-61
2022/10/10 04:41:01;;;;;;;6.70;6.20;;;;;;;;;;5020497;28;20025;-60
2022/10/10 04:43:27;;;;;;;7.18;6.68;;;;;;;;;;5017099;28;20029;-60
2022/10/10 04:45:55;;;;;;;7.03;6.53;;;;;;;;;;5016614;28;20490;-60
2022/10/10 04:48:20;;;;;;;7.28;6.78;;;;;;;;;;5015504;28;20448;-60
2022/10/10 04:50:53;;;;;;;7.43;6.93;;;;;;;;;;5017596;28;20045;-60
2022/10/10 04:53:18;;;;;;;7.13;6.63;;;;;;;;;;5016404;28;20034;-60
2022/10/10 04:55:44;;;;;;;6.53;6.10;;;;;;;;;;5015404;28;20033;-60
2022/10/10 04:58:09;;;;;;;6.63;6.13;;;;;;;;;;5015948;28;20105;-60
2022/10/10 05:00:36;;;;;;;6.65;6.05;;;;;;;;;;5015401;28;20029;-60
2022/10/10 05:03:01;;;;;;;7.07;6.47;;;;;;;;;;5014012;28;20076;-59
2022/10/10 05:05:27;;;;;;;7.20;6.60;;;;;;;;;;5021274;28;20640;-60
2022/10/10 05:07:52;;;;;;;6.88;6.38;;;;;;;;;;5017196;28;20033;-60
2022/10/10 05:10:17;;;;;;;6.35;5.88;;;;;;;;;;5016818;28;20034;-60
2022/10/10 05:12:43;;;;;;;7.05;6.50;;;;;;;;;;5017730;28;20124;-60
2022/10/10 05:15:09;;;;;;;7.10;6.60;;;;;;;;;;5016433;28;20468;-60
2022/10/10 05:17:34;;;;;;;6.30;5.82;;;;;;;;;;5015105;28;20455;-60
2022/10/10 05:19:59;;;;;;;6.90;6.40;;;;;;;;;;5016837;28;20038;-60
2022/10/10 05:22:25;;;;;;;6.75;6.25;;;;;;;;;;5016787;28;20037;-60
2022/10/10 05:24:50;;;;;;;6.00;5.60;;;;;;;;;;5019798;28;20621;-60
2022/10/10 05:27:15;;;;;;;7.18;6.68;;;;;;;;;;5021589;28;20039;-60
2022/10/10 05:29:41;;;;;;;6.38;5.90;;;;;;;;;;5018718;28;20117;-60
2022/10/10 05:32:06;;;;;;;6.95;6.45;;;;;;;;;;5015806;28;20047;-59
2022/10/10 05:34:31;;;;;;;7.13;6.57;;;;;;;;;;5017701;28;20326;-59
2022/10/10 05:36:57;;;;;;;7.07;6.57;;;;;;;;;;5018778;28;20112;-60
2022/10/10 05:39:23;;;;;;;6.85;6.35;;;;;;;;;;5017658;28;20121;-60
2022/10/10 05:41:48;;;;;;;6.65;6.15;;;;;;;;;;5016848;28;20109;-60
2022/10/10 05:44:13;;;;;;;7.20;6.68;;;;;;;;;;5015000;28;20156;-60
2022/10/10 05:46:39;;;;;;;7.10;6.57;;;;;;;;;;5012233;28;20104;-60
2022/10/10 05:49:04;;;;;;;6.28;5.85;;;;;;;;;;5016426;28;20116;-59
2022/10/10 05:51:29;;;;;;;7.68;6.80;;;;;;;;;;5014201;28;20075;-60
2022/10/10 05:53:56;;;;;;;6.90;6.40;;;;;;;;;;5017870;28;20448;-60
2022/10/10 05:56:22;;;;;;;6.20;5.80;;;;;;;;;;5013885;28;20427;-59
2022/10/10 05:58:50;;;;;;;6.63;6.20;;;;;;;;;;5020977;28;20029;-60
2022/10/10 06:01:15;;;;;;;6.90;6.40;;;;;;;;;;5018745;28;20034;-59
2022/10/10 06:03:40;;;;;;;6.38;5.95;;;;;;;;;;5015450;28;20084;-60
2022/10/10 06:06:06;;;;;;;7.55;6.95;;;;;;;;;;5017859;28;20409;-59
2022/10/10 06:08:31;;;;;;;6.82;6.32;;;;;;;;;;5018909;28;20439;-59
2022/10/10 06:11:10;;;;;;;6.57;6.13;;;;;;;;;;5018798;28;20134;-59
2022/10/10 06:13:37;;;;;;;7.38;6.80;;;;;;;;;;5017417;28;20021;-58
2022/10/10 06:16:02;;;;;;;7.22;6.72;;;;;;;;;;5016718;28;20033;-59
2022/10/10 06:18:27;;;;;;;7.45;6.95;;;;;;;;;;5019559;28;20028;-58
2022/10/10 06:20:53;;;;;;;7.20;6.70;;;;;;;;;;5014930;28;20088;-58
2022/10/10 06:23:19;;;;;;;7.03;6.53;;;;;;;;;;5015763;28;20117;-59
2022/10/10 06:25:45;;;;;;;7.40;6.45;;;;;;;;;;5016783;28;20072;-59
2022/10/10 06:28:11;;;;;;;6.35;5.95;;;;;;;;;;5014614;28;20582;-59
2022/10/10 06:30:43;;;;;;;6.97;6.47;;;;;;;;;;5016549;28;20069;-59
2022/10/10 06:33:10;;;;;;;7.38;6.78;;;;;;;;;;5017650;28;20033;-61
2022/10/10 06:35:41;;;;;;;7.35;6.75;;;;;;;;;;5016902;28;20112;-60
2022/10/10 06:38:07;;;;;;;7.43;6.85;;;;;;;;;;5016124;28;20091;-60
2022/10/10 06:40:33;;;;;;;6.28;5.78;;;;;;;;;;5014909;28;20057;-61
2022/10/10 06:42:58;;;;;;;7.32;6.82;;;;;;;;;;5012424;28;20047;-60
2022/10/10 06:45:24;;;;;;;7.28;6.78;;;;;;;;;;5019696;28;20531;-60
2022/10/10 06:47:50;;;;;;;7.20;6.70;;;;;;;;;;5016192;28;20045;-60
2022/10/10 06:50:15;;;;;;;7.18;6.68;;;;;;;;;;5016021;28;20483;-60
2022/10/10 06:52:41;;;;;;;6.47;5.97;;;;;;;;;;5018137;28;20430;-60
2022/10/10 06:55:07;;;;;;;7.40;6.80;;;;;;;;;;5017773;28;20050;-60
2022/10/10 06:57:32;;;;;;;6.47;6.07;;;;;;;;;;5015637;28;20032;-60
2022/10/10 06:59:57;;;;;;;6.75;6.25;;;;;;;;;;5014517;28;20061;-60
2022/10/10 07:02:23;;;;;;;6.78;6.28;;;;;;;;;;5012584;28;20439;-60
2022/10/10 07:04:49;;;;;;;7.15;6.55;;;;;;;;;;5011919;28;20033;-60
2022/10/10 07:07:14;;;;;;;7.43;6.82;;;;;;;;;;5014211;28;20377;-60
2022/10/10 07:09:40;;;;;;;6.93;6.35;;;;;;;;;;5017372;28;20091;-60
2022/10/10 07:12:05;;;;;;;6.43;5.93;;;;;;;;;;5022335;28;20467;-61
2022/10/10 07:14:30;;;;;;;6.65;6.13;;;;;;;;;;5022043;28;20014;-60
2022/10/10 07:16:56;;;;;;;7.60;7.10;;;;;;;;;;5019939;28;20502;-60
2022/10/10 07:19:23;;;;;;;6.63;6.13;;;;;;;;;;5017623;28;20037;-60
2022/10/10 07:21:49;;;;;;;7.20;6.65;;;;;;;;;;5017956;28;20033;-60
2022/10/10 07:24:15;;;;;;;6.45;5.95;;;;;;;;;;5019063;28;20044;-60
2022/10/10 07:26:40;;;;;;;6.60;6.00;;;;;;;;;;5022635;28;20021;-60
2022/10/10 07:29:05;;;;;;;15.25;6.90;;;;;;;;;;5021337;28;20041;-60
2022/10/10 07:31:31;;;;;;;6.65;6.15;;;;;;;;;;5020017;28;20021;-60
2022/10/10 07:33:56;;;;;;;6.88;6.38;;;;;;;;;;5021738;28;20068;-60
2022/10/10 07:36:22;;;;;;;7.22;6.72;;;;;;;;;;5020176;28;20049;-60
2022/10/10 07:38:51;;;;;;;6.78;6.28;;;;;;;;;;5017925;28;20029;-60
2022/10/10 07:41:18;;;;;;;7.30;6.80;;;;;;;;;;5018189;28;20044;-60
2022/10/10 07:43:44;;;;;;;7.88;7.28;;;;;;;;;;5016299;28;20471;-60
2022/10/10 07:46:18;;;;;;;6.18;5.78;;;;;;;;;;5019647;28;20033;-60
2022/10/10 07:48:43;;;;;;;7.70;7.10;;;;;;;;;;5015900;28;20034;-60
2022/10/10 07:51:09;;;;;;;7.88;7.38;;;;;;;;;;5019981;28;20423;-60
2022/10/10 07:53:35;;;;;;;7.28;6.78;;;;;;;;;;5017582;28;20527;-60
2022/10/10 07:56:04;;;;;;;8.15;7.55;;;;;;;;;;5018724;28;20041;-60
2022/10/10 07:58:29;;;;;;;8.70;8.10;;;;;;;;;;5017585;28;20045;-60
2022/10/10 08:01:06;;;;;;;7.65;7.15;;;;;;;;;;5018148;28;20531;-60
2022/10/10 08:03:31;;;;;;;8.13;7.53;;;;;;;;;;5016694;28;20033;-60
2022/10/10 08:05:57;;;;;;;8.48;7.97;;;;;;;;;;5016561;28;20037;-60
2022/10/10 08:08:22;;;;;;;8.68;8.07;;;;;;;;;;5017410;28;20213;-60
2022/10/10 08:10:47;;;;;;;8.10;7.60;;;;;;;;;;5017590;28;20026;-60
2022/10/10 08:13:13;;;;;;;8.77;8.18;;;;;;;;;;5019352;28;20030;-60
2022/10/10 08:15:39;;;;;;;8.73;8.13;;;;;;;;;;5018544;28;20111;-63
2022/10/10 08:18:05;;;;;;;8.50;7.90;;;;;;;;;;5019981;28;20041;-63
2022/10/10 08:20:30;;;;;;;8.32;7.82;;;;;;;;;;5018791;28;20044;-63
2022/10/10 08:22:55;;;;;;;8.27;7.78;;;;;;;;;;5016377;28;20412;-63
2022/10/10 08:25:21;;;;;;;7.53;7.03;;;;;;;;;;5017300;28;20471;-63
2022/10/10 08:27:46;;;;;;;8.55;7.97;;;;;;;;;;5013425;28;20026;-63
2022/10/10 08:30:12;;;;;;;8.63;8.02;;;;;;;;;;5014646;28;20387;-63
2022/10/10 08:32:37;;;;;;;7.80;7.30;;;;;;;;;;5018122;28;20032;-62
2022/10/10 08:35:03;;;;;;;7.38;6.88;;;;;;;;;;5016919;28;20084;-63
2022/10/10 08:37:29;;;;;;;8.32;7.72;;;;;;;;;;5018730;28;20722;-64
2022/10/10 08:39:54;;;;;;;9.10;8.40;;;;;;;;;;5017347;28;20152;-63
2022/10/10 08:42:30;;;;;;;8.30;7.78;;;;;;;;;;5018567;28;20506;-62
2022/10/10 08:45:00;;;;;;;8.88;8.27;;;;;;;;;;5016244;28;20025;-63
2022/10/10 08:47:45;;;;;;;8.52;7.93;;;;;;;;;;5015716;28;20044;-63
2022/10/10 08:50:39;;;;;;;7.82;7.22;;;;;;;;;;5017961;28;20033;-64
2022/10/10 08:53:25;;;;;;;7.75;7.20;;;;;;;;;;5023304;28;20033;-64
2022/10/10 08:55:52;;;;;;;7.25;6.65;;;;;;;;;;5024236;28;20123;-63
2022/10/10 08:58:17;;;;;;;12.48;8.10;;;;;;;;;;5018593;28;20057;-64
2022/10/10 09:00:48;;;;;;;7.18;6.55;;;;;;;;;;5027347;28;20084;-64
2022/10/10 09:03:39;;;;;;;6.90;6.40;;;;;;;;;;5019655;28;20435;-63
2022/10/10 09:06:13;;;;;;;6.82;6.28;;;;;;;;;;5021373;28;20107;-63
2022/10/10 09:08:50;;;;;;;7.88;7.20;;;;;;;;;;5019455;28;20555;-62
2022/10/10 09:11:39;;;;;;;7.28;6.78;;;;;;;;;;5017836;28;20471;-63
2022/10/10 09:14:15;;;;;;;7.47;6.88;;;;;;;;;;5021964;28;20259;-63
2022/10/10 09:16:57;;;;;;;6.90;6.40;;;;;;;;;;5017207;28;20037;-62
2022/10/10 09:19:58;;;;;;;7.20;6.50;;;;;;;;;;5017312;28;20099;-63
2022/10/10 09:22:29;;;;;;;6.70;6.20;;;;;;;;;;5015106;28;20128;-63
2022/10/10 09:25:01;;;;;;;7.20;6.70;;;;;;;;;;5015096;28;20060;-63
2022/10/10 09:27:31;;;;;;;7.03;6.50;;;;;;;;;;5019119;28;20049;-64
2022/10/10 09:30:05;;;;;;;6.60;6.10;;;;;;;;;;5017230;28;20038;-65
2022/10/10 09:32:40;;;;;;;7.78;7.28;;;;;;;;;;5013195;28;20064;-63
2022/10/10 09:35:22;;;;;;;7.43;6.93;;;;;;;;;;5014623;28;20018;-64
2022/10/10 09:37:49;;;;;;;7.30;6.72;;;;;;;;;;5015891;28;20048;-64
2022/10/10 09:40:27;;;;;;;6.78;6.28;;;;;;;;;;5017543;28;20111;-63
2022/10/10 09:42:55;;;;;;;7.28;6.57;;;;;;;;;;5016895;28;20629;-63
2022/10/10 09:45:34;;;;;;;6.80;6.30;;;;;;;;;;5015800;28;20034;-63
2022/10/10 09:48:00;;;;;;;7.47;6.95;;;;;;;;;;5014876;28;20056;-63
2022/10/10 09:50:25;;;;;;;7.82;7.25;;;;;;;;;;5017295;28;20486;-59
2022/10/10 09:52:51;;;;;;;9.15;8.25;;;;;;;;;;5016159;28;20033;-59
2022/10/10 09:55:23;;;;;;;9.35;8.43;;;;;;;;;;5014220;28;20426;-59
2022/10/10 09:57:51;;;;;;;7.22;6.72;;;;;;;;;;5015496;28;20115;-59
2022/10/10 10:00:19;;;;;;;7.45;6.85;;;;;;;;;;5017744;28;20037;-60
2022/10/10 10:03:11;;;;;;;6.93;6.43;;;;;;;;;;5017617;28;20040;-60
2022/10/10 10:05:38;;;;;;;7.00;6.50;;;;;;;;;;5017861;28;20083;-60
2022/10/10 10:08:04;;;;;;;8.27;7.57;;;;;;;;;;5018670;28;20373;-61
2022/10/10 10:10:34;;;;;;;8.55;7.95;;;;;;;;;;5015881;28;20447;-61
2022/10/10 10:13:00;;;;;;;8.32;7.72;;;;;;;;;;5018919;28;20063;-60
2022/10/10 10:15:28;;;;;;;7.57;7.00;;;;;;;;;;5021144;28;20451;-61
2022/10/10 10:18:12;;;;;;;9.18;8.55;;;;;;;;;;5016596;28;20036;-61
2022/10/10 10:20:43;;;;;;;8.02;7.43;;;;;;;;;;5016697;28;20072;-60
2022/10/10 10:23:23;;;;;;;8.57;7.95;;;;;;;;;;5017796;28;20040;-60
2022/10/10 10:26:12;;;;;;;7.40;6.80;;;;;;;;;;5017250;28;20034;-63
2022/10/10 10:28:39;;;;;;;8.25;7.65;;;;;;;;;;5017962;28;20065;-60
2022/10/10 10:31:19;;;;;;;9.02;8.18;;;;;;;;;;5015196;28;20052;-60
2022/10/10 10:34:12;;;;;;;8.85;8.25;;;;;;;;;;5015374;28;20018;-60
2022/10/10 10:37:05;;;;;;;9.10;8.50;;;;;;;;;;5016439;28;20144;-60
2022/10/10 10:39:51;;;;;;;9.55;8.82;;;;;;;;;;5013989;28;20034;-59
2022/10/10 10:42:47;;;;;;;8.68;8.07;;;;;;;;;;5013567;28;20053;-61
2022/10/10 10:45:32;;;;;;;9.80;9.10;;;;;;;;;;5011613;28;20056;-61
2022/10/10 10:48:19;;;;;;;9.80;9.10;;;;;;;;;;5014590;28;20111;-61
2022/10/10 10:50:53;;;;;;;8.80;8.20;;;;;;;;;;5017068;28;20890;-61
2022/10/10 10:53:37;;;;;;;9.77;9.07;;;;;;;;;;5015000;28;20030;-60
2022/10/10 10:56:31;;;;;;;10.48;9.68;;;;;;;;;;5016266;28;20042;-60
2022/10/10 10:59:31;;;;;;;10.27;9.57;;;;;;;;;;5014995;28;20022;-60
2022/10/10 11:02:02;;;;;;;10.20;9.55;;;;;;;;;;4987162;28;20045;-60
2022/10/10 11:04:40;;;;;;;11.80;10.55;;;;;;;;;;5015405;28;20128;-60
2022/10/10 11:07:19;;;;;;;10.60;9.90;;;;;;;;;;5014946;28;20030;-61
2022/10/10 11:09:57;;;;;;;11.60;10.80;;;;;;;;;;5015157;28;20030;-61
2022/10/10 11:12:48;;;;;;;12.57;11.70;;;;;;;;;;5031208;28;20481;-60
2022/10/10 11:15:24;;;;;;;12.63;11.82;;;;;;;;;;5016723;28;20034;-61
2022/10/10 11:18:04;;;;;;;13.63;12.25;;;;;;;;;;5014363;28;20025;-60
2022/10/10 11:21:16;;;;;;;12.38;11.57;;;;;;;;;;5013957;28;20544;-60
2022/10/10 11:23:56;;;;;;;12.75;11.95;;;;;;;;;;5015837;28;20044;-65
2022/10/10 11:26:29;;;;;;;14.13;13.23;;;;;;;;;;5018669;28;20036;-64
2022/10/10 11:29:01;;;;;;;14.00;13.10;;;;;;;;;;5015953;28;20030;-64
2022/10/10 11:31:44;;;;;;;13.98;13.18;;;;;;;;;;5016434;28;20030;-64
2022/10/10 11:34:26;;;;;;;14.85;13.98;;;;;;;;;;5049230;28;20046;-64
2022/10/10 11:36:55;;;;;;;15.82;14.07;;;;;;;;;;5014783;28;20033;-64
2022/10/10 11:39:32;;;;;;;15.98;14.98;;;;;;;;;;5019623;28;20610;-63
2022/10/10 11:42:24;;;;;;;16.95;15.77;;;;;;;;;;5019102;28;20033;-64
2022/10/10 11:44:52;;;;;;;16.20;15.20;;;;;;;;;;5015621;28;20044;-64
2022/10/10 11:47:29;;;;;;;15.88;14.98;;;;;;;;;;5020477;28;20029;-63
2022/10/10 11:50:41;;;;;;;14.35;13.45;;;;;;;;;;5013472;28;20022;-63
2022/10/10 11:53:11;;;;;;;15.32;14.43;;;;;;;;;;5016335;28;20046;-63
2022/10/10 11:56:01;;;;;;;15.98;14.98;;;;;;;;;;5015811;28;20044;-63
2022/10/10 11:58:34;;;;;;;14.90;14.00;;;;;;;;;;5019127;28;20037;-63
2022/10/10 12:01:15;;;;;;;14.57;13.75;;;;;;;;;;5022048;28;20045;-63
2022/10/10 12:03:40;;;;;;;15.90;14.90;;;;;;;;;;5020828;28;20036;-63
2022/10/10 12:06:11;;;;;;;15.57;14.57;;;;;;;;;;5020893;28;20033;-63
2022/10/10 12:08:42;;;;;;;14.27;13.38;;;;;;;;;;5018924;28;20108;-64
2022/10/10 12:11:29;;;;;;;14.07;13.27;;;;;;;;;;5017354;28;20095;-64
2022/10/10 12:13:58;;;;;;;14.80;13.90;;;;;;;;;;5020062;28;20040;-64
2022/10/10 12:16:27;;;;;;;16.02;15.13;;;;;;;;;;5018393;28;20053;-64
2022/10/10 12:18:58;;;;;;;15.65;14.70;;;;;;;;;;5018057;28;20098;-64
2022/10/10 12:21:25;;;;;;;15.65;14.70;;;;;;;;;;5017067;28;20045;-64
2022/10/10 12:24:11;;;;;;;16.52;15.40;;;;;;;;;;5017585;28;20021;-64
2022/10/10 12:26:52;;;;;;;14.95;14.02;;;;;;;;;;5016487;28;20091;-64
2022/10/10 12:29:45;;;;;;;15.18;14.23;;;;;;;;;;5018008;28;20037;-65
2022/10/10 12:32:14;;;;;;;14.25;13.30;;;;;;;;;;5017476;28;20099;-64
2022/10/10 12:35:01;;;;;;;15.80;14.90;;;;;;;;;;5017277;28;20124;-64
2022/10/10 12:37:34;;;;;;;14.35;13.48;;;;;;;;;;5016826;28;20029;-65
2022/10/10 12:40:18;;;;;;;16.23;15.30;;;;;;;;;;5016942;28;20040;-65
2022/10/10 12:42:46;;;;;;;16.40;15.43;;;;;;;;;;5016429;28;20130;-65
2022/10/10 12:45:30;;;;;;;16.52;15.60;;;;;;;;;;5020150;28;20030;-65
2022/10/10 12:48:04;;;;;;;16.75;15.65;;;;;;;;;;5017719;28;20575;-65
2022/10/10 12:50:40;;;;;;;16.80;15.85;;;;;;;;;;5016522;28;20025;-65
2022/10/10 12:53:17;;;;;;;16.10;15.20;;;;;;;;;;5018340;28;20038;-60
2022/10/10 12:55:45;;;;;;;16.13;15.23;;;;;;;;;;5016349;28;20033;-60
2022/10/10 12:58:26;;;;;;;15.90;15.00;;;;;;;;;;5016002;28;20029;-60
2022/10/10 13:00:52;;;;;;;17.65;16.60;;;;;;;;;;5016283;28;20487;-61
2022/10/10 13:03:29;;;;;;;17.85;16.77;;;;;;;;;;5015674;28;20033;-60
2022/10/10 13:05:58;;;;;;;19.52;18.42;;;;;;;;;;5017043;28;20045;-60
2022/10/10 13:08:27;;;;;;;19.13;18.03;;;;;;;;;;5018759;28;20033;-60
2022/10/10 13:11:04;;;;;;;19.17;18.08;;;;;;;;;;5022144;28;20021;-60
2022/10/10 13:13:29;;;;;;;17.65;16.65;;;;;;;;;;5017780;28;20033;-61
2022/10/10 13:15:57;;;;;;;18.40;16.75;;;;;;;;;;5015712;28;20120;-60
2022/10/10 13:18:35;;;;;;;16.65;15.70;;;;;;;;;;5021695;28;20148;-60
2022/10/10 13:21:02;;;;;;;16.38;15.48;;;;;;;;;;5017838;28;20061;-60
2022/10/10 13:23:28;;;;;;;15.63;14.73;;;;;;;;;;5016681;28;20360;-60
2022/10/10 13:25:53;;;;;;;15.60;14.70;;;;;;;;;;5016611;28;20330;-60
2022/10/10 13:28:20;;;;;;;14.45;13.63;;;;;;;;;;5016925;28;20470;-60
2022/10/10 13:30:47;;;;;;;19.95;18.85;;;;;;;;;;5016713;28;20022;-59
2022/10/10 13:33:18;;;;;;;23.08;21.63;;;;;;;;;;5017411;28;20038;-60
2022/10/10 13:35:45;;;;;;;20.15;19.00;;;;;;;;;;5015913;28;20037;-59
2022/10/10 13:38:13;;;;;;;20.80;19.60;;;;;;;;;;5016388;28;20040;-60
2022/10/10 13:40:40;;;;;;;17.25;16.30;;;;;;;;;;5013419;28;20033;-59
2022/10/10 13:43:15;;;;;;;20.35;19.15;;;;;;;;;;5013552;28;20045;-59
2022/10/10 13:45:46;;;;;;;18.65;17.60;;;;;;;;;;5051178;28;20120;-60
2022/10/10 13:48:17;;;;;;;18.30;17.30;;;;;;;;;;5016692;28;20072;-59
2022/10/10 13:50:42;;;;;;;17.95;16.90;;;;;;;;;;5018409;28;20039;-59
2022/10/10 13:53:26;;;;;;;20.13;18.73;;;;;;;;;;5011940;28;20128;-59
2022/10/10 13:55:58;;;;;;;17.92;16.92;;;;;;;;;;5011208;28;20773;-59
2022/10/10 13:58:24;;;;;;;21.60;20.42;;;;;;;;;;5017499;28;20034;-59
2022/10/10 14:01:01;;;;;;;21.77;19.98;;;;;;;;;;5018434;28;20475;-59
2022/10/10 14:03:28;;;;;;;21.88;20.67;;;;;;;;;;5017643;28;20022;-58
2022/10/10 14:05:54;;;;;;;24.67;23.23;;;;;;;;;;5015378;28;20115;-58
2022/10/10 14:08:25;;;;;;;22.20;21.00;;;;;;;;;;5012996;28;20131;-58
2022/10/10 14:11:06;;;;;;;21.73;20.55;;;;;;;;;;5017527;28;20029;-61
2022/10/10 14:13:33;;;;;;;24.08;22.77;;;;;;;;;;5015555;28;20049;-61
2022/10/10 14:16:26;;;;;;;23.15;21.88;;;;;;;;;;5016689;28;20033;-61
2022/10/10 14:18:52;;;;;;;24.17;22.88;;;;;;;;;;5014718;28;20030;-61
2022/10/10 14:21:18;;;;;;;21.85;20.60;;;;;;;;;;5017372;28;20043;-61
2022/10/10 14:23:43;;;;;;;21.70;20.45;;;;;;;;;;5016221;28;20029;-61
2022/10/10 14:26:13;;;;;;;21.33;20.10;;;;;;;;;;5016964;28;20041;-61
2022/10/10 14:28:39;;;;;;;20.25;19.15;;;;;;;;;;5015459;28;20457;-61
2022/10/10 14:31:05;;;;;;;22.30;20.77;;;;;;;;;;5018526;28;20045;-61
2022/10/10 14:33:31;;;;;;;20.65;19.45;;;;;;;;;;5016392;28;20479;-61
2022/10/10 14:35:58;;;;;;;20.08;18.67;;;;;;;;;;5017769;28;20108;-62
2022/10/10 14:38:24;;;;;;;19.75;18.67;;;;;;;;;;5015818;28;20152;-62
2022/10/10 14:40:50;;;;;;;20.75;19.58;;;;;;;;;;5015489;28;20041;-62
2022/10/10 14:43:17;;;;;;;20.30;18.83;;;;;;;;;;5021442;28;20360;-62
2022/10/10 14:45:43;;;;;;;23.58;22.15;;;;;;;;;;5021945;28;20176;-61
2022/10/10 14:48:11;;;;;;;23.27;22.02;;;;;;;;;;5014730;28;20543;-61
2022/10/10 14:50:42;;;;;;;24.02;22.73;;;;;;;;;;5015916;28;20029;-61
2022/10/10 14:53:08;;;;;;;22.20;20.80;;;;;;;;;;5013522;28;20316;-61
2022/10/10 14:55:33;;;;;;;23.85;22.48;;;;;;;;;;5011361;28;20481;-61
2022/10/10 14:57:59;;;;;;;21.45;20.27;;;;;;;;;;5021444;28;20030;-61